sensor_id;sensor_type;location;lat;lon;timestamp;pressure;altitude;pressure_sealevel;temperature;humidity
76378;BME280;65200;49.500;8.654;2024-01-27T00:01:38;102296.22;;;8.49;57.45
76378;BME280;65200;49.500;8.654;2024-01-27T00:04:06;102299.19;;;8.76;57.37
76378;BME280;65200;49.500;8.654;2024-01-27T00:06:33;102294.75;;;8.13;58.46
76378;BME280;65200;49.500;8.654;2024-01-27T00:09:01;102289.81;;;7.55;59.32
76378;BME280;65200;49.500;8.654;2024-01-27T00:11:29;102302.63;;;8.25;58.95
76378;BME280;65200;49.500;8.654;2024-01-27T00:13:57;102302.63;;;8.25;57.98
76378;BME280;65200;49.500;8.654;2024-01-27T00:16:26;102303.44;;;8.58;58.29
76378;BME280;65200;49.500;8.654;2024-01-27T00:18:53;102295.94;;;8.20;59.80
76378;BME280;65200;49.500;8.654;2024-01-27T00:21:21;102295.19;;;8.18;59.35
76378;BME280;65200;49.500;8.654;2024-01-27T00:23:49;102290.34;;;8.34;58.21
76378;BME280;65200;49.500;8.654;2024-01-27T00:26:16;102296.75;;;8.31;59.09
76378;BME280;65200;49.500;8.654;2024-01-27T00:28:44;102290.91;;;8.79;57.46
76378;BME280;65200;49.500;8.654;2024-01-27T00:31:13;102297.06;;;8.70;57.36
76378;BME280;65200;49.500;8.654;2024-01-27T00:33:40;102291.50;;;8.62;56.79
76378;BME280;65200;49.500;8.654;2024-01-27T00:36:08;102301.94;;;8.65;58.20
76378;BME280;65200;49.500;8.654;2024-01-27T00:38:36;102300.41;;;8.92;56.61
76378;BME280;65200;49.500;8.654;2024-01-27T00:41:03;102306.97;;;8.26;58.71
76378;BME280;65200;49.500;8.654;2024-01-27T00:43:31;102308.56;;;8.70;57.47
76378;BME280;65200;49.500;8.654;2024-01-27T00:45:59;102310.22;;;8.62;58.29
76378;BME280;65200;49.500;8.654;2024-01-27T00:48:27;102309.88;;;8.76;56.32
76378;BME280;65200;49.500;8.654;2024-01-27T00:50:55;102313.19;;;8.27;58.95
76378;BME280;65200;49.500;8.654;2024-01-27T00:53:23;102315.22;;;8.76;55.87
76378;BME280;65200;49.500;8.654;2024-01-27T00:55:50;102311.13;;;8.51;56.75
76378;BME280;65200;49.500;8.654;2024-01-27T00:58:18;102322.38;;;8.34;57.21
76378;BME280;65200;49.500;8.654;2024-01-27T01:00:45;102321.94;;;8.50;56.79
76378;BME280;65200;49.500;8.654;2024-01-27T01:03:13;102314.72;;;8.41;56.55
76378;BME280;65200;49.500;8.654;2024-01-27T01:05:42;102321.00;;;8.08;58.15
76378;BME280;65200;49.500;8.654;2024-01-27T01:08:10;102320.91;;;7.98;58.33
76378;BME280;65200;49.500;8.654;2024-01-27T01:10:37;102329.81;;;8.30;58.33
76378;BME280;65200;49.500;8.654;2024-01-27T01:13:05;102328.22;;;8.28;57.05
76378;BME280;65200;49.500;8.654;2024-01-27T01:15:33;102328.75;;;8.11;57.34
76378;BME280;65200;49.500;8.654;2024-01-27T01:18:00;102334.28;;;8.62;56.37
76378;BME280;65200;49.500;8.654;2024-01-27T01:20:28;102337.72;;;8.21;56.52
76378;BME280;65200;49.500;8.654;2024-01-27T01:22:58;102341.44;;;8.29;57.74
76378;BME280;65200;49.500;8.654;2024-01-27T01:25:25;102344.13;;;7.87;58.54
76378;BME280;65200;49.500;8.654;2024-01-27T01:27:53;102350.53;;;8.59;56.29
76378;BME280;65200;49.500;8.654;2024-01-27T01:30:20;102356.06;;;8.25;57.25
76378;BME280;65200;49.500;8.654;2024-01-27T01:32:48;102360.41;;;8.26;57.62
76378;BME280;65200;49.500;8.654;2024-01-27T01:35:17;102361.97;;;8.61;56.12
76378;BME280;65200;49.500;8.654;2024-01-27T01:37:44;102370.84;;;8.61;57.45
76378;BME280;65200;49.500;8.654;2024-01-27T01:40:15;102369.97;;;8.61;55.55
76378;BME280;65200;49.500;8.654;2024-01-27T01:42:43;102379.66;;;8.73;56.61
76378;BME280;65200;49.500;8.654;2024-01-27T01:45:11;102381.13;;;8.66;56.41
76378;BME280;65200;49.500;8.654;2024-01-27T01:47:39;102379.50;;;8.54;58.00
76378;BME280;65200;49.500;8.654;2024-01-27T01:50:08;102376.19;;;8.18;57.36
76378;BME280;65200;49.500;8.654;2024-01-27T01:52:36;102374.84;;;8.56;57.08
76378;BME280;65200;49.500;8.654;2024-01-27T01:55:06;102368.22;;;8.50;56.22
76378;BME280;65200;49.500;8.654;2024-01-27T01:57:35;102373.09;;;8.45;56.21
76378;BME280;65200;49.500;8.654;2024-01-27T02:00:03;102377.22;;;8.06;58.92
76378;BME280;65200;49.500;8.654;2024-01-27T02:02:32;102365.03;;;8.13;58.84
76378;BME280;65200;49.500;8.654;2024-01-27T02:05:00;102369.75;;;8.32;58.63
76378;BME280;65200;49.500;8.654;2024-01-27T02:07:28;102365.50;;;8.61;56.74
76378;BME280;65200;49.500;8.654;2024-01-27T02:09:55;102377.13;;;7.75;59.77
76378;BME280;65200;49.500;8.654;2024-01-27T02:12:23;102376.31;;;8.28;57.91
76378;BME280;65200;49.500;8.654;2024-01-27T02:14:52;102378.53;;;8.55;57.24
76378;BME280;65200;49.500;8.654;2024-01-27T02:17:20;102382.94;;;8.45;57.02
76378;BME280;65200;49.500;8.654;2024-01-27T02:19:47;102389.31;;;8.10;57.59
76378;BME280;65200;49.500;8.654;2024-01-27T02:22:15;102392.19;;;8.29;57.31
76378;BME280;65200;49.500;8.654;2024-01-27T02:24:44;102386.59;;;8.44;57.69
76378;BME280;65200;49.500;8.654;2024-01-27T02:27:13;102393.69;;;8.54;58.15
76378;BME280;65200;49.500;8.654;2024-01-27T02:29:40;102400.97;;;8.63;56.38
76378;BME280;65200;49.500;8.654;2024-01-27T02:32:09;102401.75;;;8.43;57.78
76378;BME280;65200;49.500;8.654;2024-01-27T02:34:36;102403.31;;;8.57;56.14
76378;BME280;65200;49.500;8.654;2024-01-27T02:37:04;102405.78;;;8.38;55.67
76378;BME280;65200;49.500;8.654;2024-01-27T02:39:32;102407.63;;;8.37;56.97
76378;BME280;65200;49.500;8.654;2024-01-27T02:42:01;102408.97;;;8.31;57.55
76378;BME280;65200;49.500;8.654;2024-01-27T02:44:28;102409.81;;;8.32;57.30
76378;BME280;65200;49.500;8.654;2024-01-27T02:46:56;102401.72;;;8.11;57.63
76378;BME280;65200;49.500;8.654;2024-01-27T02:49:23;102405.00;;;8.26;57.33
76378;BME280;65200;49.500;8.654;2024-01-27T02:51:51;102407.59;;;7.72;58.55
76378;BME280;65200;49.500;8.654;2024-01-27T02:54:19;102414.59;;;7.29;60.90
76378;BME280;65200;49.500;8.654;2024-01-27T02:56:46;102412.53;;;7.33;60.68
76378;BME280;65200;49.500;8.654;2024-01-27T02:59:15;102398.34;;;7.76;59.68
76378;BME280;65200;49.500;8.654;2024-01-27T03:01:43;102406.84;;;7.81;58.95
76378;BME280;65200;49.500;8.654;2024-01-27T03:04:10;102410.69;;;7.22;60.50
76378;BME280;65200;49.500;8.654;2024-01-27T03:06:38;102407.81;;;7.80;59.38
76378;BME280;65200;49.500;8.654;2024-01-27T03:09:05;102411.94;;;7.73;58.84
76378;BME280;65200;49.500;8.654;2024-01-27T03:11:33;102413.66;;;7.85;57.37
76378;BME280;65200;49.500;8.654;2024-01-27T03:14:01;102409.13;;;7.97;57.98
76378;BME280;65200;49.500;8.654;2024-01-27T03:16:29;102419.47;;;7.57;59.04
76378;BME280;65200;49.500;8.654;2024-01-27T03:18:57;102420.06;;;7.83;57.50
76378;BME280;65200;49.500;8.654;2024-01-27T03:21:25;102410.97;;;7.96;56.91
76378;BME280;65200;49.500;8.654;2024-01-27T03:23:53;102414.91;;;7.03;59.21
76378;BME280;65200;49.500;8.654;2024-01-27T03:26:21;102423.78;;;7.14;60.19
76378;BME280;65200;49.500;8.654;2024-01-27T03:28:48;102416.06;;;7.66;57.88
76378;BME280;65200;49.500;8.654;2024-01-27T03:31:16;102421.28;;;7.57;57.74
76378;BME280;65200;49.500;8.654;2024-01-27T03:33:45;102418.59;;;7.68;57.49
76378;BME280;65200;49.500;8.654;2024-01-27T03:36:13;102414.13;;;7.68;57.21
76378;BME280;65200;49.500;8.654;2024-01-27T03:38:41;102416.06;;;7.77;57.27
76378;BME280;65200;49.500;8.654;2024-01-27T03:41:08;102418.97;;;7.74;56.49
76378;BME280;65200;49.500;8.654;2024-01-27T03:43:36;102418.50;;;7.58;56.74
76378;BME280;65200;49.500;8.654;2024-01-27T03:46:04;102417.31;;;7.51;57.02
76378;BME280;65200;49.500;8.654;2024-01-27T03:48:31;102421.53;;;7.32;58.71
76378;BME280;65200;49.500;8.654;2024-01-27T03:51:02;102413.78;;;7.40;59.43
76378;BME280;65200;49.500;8.654;2024-01-27T03:53:30;102414.88;;;7.59;57.96
76378;BME280;65200;49.500;8.654;2024-01-27T03:55:58;102416.06;;;7.33;58.65
76378;BME280;65200;49.500;8.654;2024-01-27T03:58:26;102423.22;;;7.33;58.99
76378;BME280;65200;49.500;8.654;2024-01-27T04:00:53;102425.75;;;7.56;58.73
76378;BME280;65200;49.500;8.654;2024-01-27T04:03:21;102428.66;;;7.53;57.46
76378;BME280;65200;49.500;8.654;2024-01-27T04:05:49;102435.97;;;7.62;57.50
76378;BME280;65200;49.500;8.654;2024-01-27T04:08:18;102439.75;;;7.71;57.97
76378;BME280;65200;49.500;8.654;2024-01-27T04:10:45;102439.22;;;7.33;59.12
76378;BME280;65200;49.500;8.654;2024-01-27T04:13:13;102433.31;;;7.73;57.53
76378;BME280;65200;49.500;8.654;2024-01-27T04:15:41;102446.88;;;7.81;57.69
76378;BME280;65200;49.500;8.654;2024-01-27T04:18:09;102443.00;;;7.52;58.45
76378;BME280;65200;49.500;8.654;2024-01-27T04:20:38;102447.06;;;7.12;59.57
76378;BME280;65200;49.500;8.654;2024-01-27T04:23:06;102446.97;;;7.36;58.72
76378;BME280;65200;49.500;8.654;2024-01-27T04:25:35;102443.91;;;7.18;59.22
76378;BME280;65200;49.500;8.654;2024-01-27T04:28:03;102453.31;;;7.57;58.36
76378;BME280;65200;49.500;8.654;2024-01-27T04:30:30;102452.81;;;7.63;58.18
76378;BME280;65200;49.500;8.654;2024-01-27T04:32:58;102455.16;;;7.67;57.17
76378;BME280;65200;49.500;8.654;2024-01-27T04:35:26;102458.06;;;7.64;56.70
76378;BME280;65200;49.500;8.654;2024-01-27T04:37:54;102452.72;;;7.86;56.23
76378;BME280;65200;49.500;8.654;2024-01-27T04:40:21;102453.44;;;7.55;56.81
76378;BME280;65200;49.500;8.654;2024-01-27T04:42:50;102458.00;;;7.31;58.08
76378;BME280;65200;49.500;8.654;2024-01-27T04:45:18;102462.72;;;7.28;57.88
76378;BME280;65200;49.500;8.654;2024-01-27T04:47:45;102457.00;;;7.21;59.17
76378;BME280;65200;49.500;8.654;2024-01-27T04:50:13;102460.22;;;7.70;57.71
76378;BME280;65200;49.500;8.654;2024-01-27T04:52:41;102463.59;;;7.39;55.92
76378;BME280;65200;49.500;8.654;2024-01-27T04:55:08;102469.31;;;7.46;56.43
76378;BME280;65200;49.500;8.654;2024-01-27T04:57:36;102466.75;;;7.55;56.04
76378;BME280;65200;49.500;8.654;2024-01-27T05:00:06;102462.16;;;7.46;55.20
76378;BME280;65200;49.500;8.654;2024-01-27T05:02:39;102471.16;;;7.11;56.89
76378;BME280;65200;49.500;8.654;2024-01-27T05:05:07;102471.88;;;7.13;57.07
76378;BME280;65200;49.500;8.654;2024-01-27T05:07:34;102473.16;;;7.31;56.57
76378;BME280;65200;49.500;8.654;2024-01-27T05:10:02;102473.16;;;7.31;57.32
76378;BME280;65200;49.500;8.654;2024-01-27T05:12:30;102475.63;;;7.45;56.79
76378;BME280;65200;49.500;8.654;2024-01-27T05:14:58;102475.78;;;7.20;57.24
76378;BME280;65200;49.500;8.654;2024-01-27T05:17:27;102472.75;;;7.13;58.25
76378;BME280;65200;49.500;8.654;2024-01-27T05:19:54;102470.56;;;7.07;58.37
76378;BME280;65200;49.500;8.654;2024-01-27T05:22:22;102477.06;;;7.03;58.70
76378;BME280;65200;49.500;8.654;2024-01-27T05:24:50;102478.00;;;6.91;59.22
76378;BME280;65200;49.500;8.654;2024-01-27T05:27:17;102480.94;;;6.99;58.91
76378;BME280;65200;49.500;8.654;2024-01-27T05:29:45;102470.38;;;6.63;59.97
76378;BME280;65200;49.500;8.654;2024-01-27T05:32:12;102467.50;;;7.01;59.70
76378;BME280;65200;49.500;8.654;2024-01-27T05:34:41;102478.31;;;7.10;58.77
76378;BME280;65200;49.500;8.654;2024-01-27T05:37:09;102481.66;;;7.01;59.18
76378;BME280;65200;49.500;8.654;2024-01-27T05:39:37;102482.44;;;7.14;58.24
76378;BME280;65200;49.500;8.654;2024-01-27T05:42:04;102489.06;;;6.74;59.35
76378;BME280;65200;49.500;8.654;2024-01-27T05:44:32;102481.66;;;7.01;59.47
76378;BME280;65200;49.500;8.654;2024-01-27T05:46:59;102489.16;;;6.96;59.15
76378;BME280;65200;49.500;8.654;2024-01-27T05:49:27;102483.44;;;7.24;57.95
76378;BME280;65200;49.500;8.654;2024-01-27T05:51:56;102482.94;;;7.30;58.56
76378;BME280;65200;49.500;8.654;2024-01-27T05:54:24;102485.56;;;7.08;58.86
76378;BME280;65200;49.500;8.654;2024-01-27T05:56:52;102498.59;;;7.24;57.56
76378;BME280;65200;49.500;8.654;2024-01-27T05:59:19;102489.03;;;7.32;58.45
76378;BME280;65200;49.500;8.654;2024-01-27T06:01:47;102485.06;;;7.03;58.66
76378;BME280;65200;49.500;8.654;2024-01-27T06:04:15;102480.00;;;7.11;58.91
76378;BME280;65200;49.500;8.654;2024-01-27T06:06:42;102480.88;;;7.23;58.42
76378;BME280;65200;49.500;8.654;2024-01-27T06:09:11;102481.75;;;7.23;57.06
76378;BME280;65200;49.500;8.654;2024-01-27T06:11:40;102488.28;;;7.30;57.19
76378;BME280;65200;49.500;8.654;2024-01-27T06:14:08;102486.97;;;7.36;57.42
76378;BME280;65200;49.500;8.654;2024-01-27T06:16:35;102487.81;;;7.25;57.67
76378;BME280;65200;49.500;8.654;2024-01-27T06:19:03;102497.34;;;7.17;57.19
76378;BME280;65200;49.500;8.654;2024-01-27T06:21:31;102498.63;;;6.17;60.35
76378;BME280;65200;49.500;8.654;2024-01-27T06:23:58;102514.22;;;5.98;61.16
76378;BME280;65200;49.500;8.654;2024-01-27T06:26:27;102508.00;;;6.22;60.94
76378;BME280;65200;49.500;8.654;2024-01-27T06:28:55;102512.94;;;6.39;59.96
76378;BME280;65200;49.500;8.654;2024-01-27T06:31:23;102506.41;;;6.56;59.22
76378;BME280;65200;49.500;8.654;2024-01-27T06:33:50;102503.69;;;6.45;59.76
76378;BME280;65200;49.500;8.654;2024-01-27T06:36:18;102510.09;;;6.42;58.66
76378;BME280;65200;49.500;8.654;2024-01-27T06:38:49;102503.34;;;6.49;58.60
76378;BME280;65200;49.500;8.654;2024-01-27T06:41:17;102512.31;;;6.48;58.98
76378;BME280;65200;49.500;8.654;2024-01-27T06:43:46;102513.75;;;6.52;58.58
76378;BME280;65200;49.500;8.654;2024-01-27T06:46:13;102512.13;;;6.39;58.58
76378;BME280;65200;49.500;8.654;2024-01-27T06:48:41;102513.38;;;6.10;60.38
76378;BME280;65200;49.500;8.654;2024-01-27T06:51:08;102509.19;;;6.54;59.66
76378;BME280;65200;49.500;8.654;2024-01-27T06:53:36;102504.03;;;6.40;59.90
76378;BME280;65200;49.500;8.654;2024-01-27T06:56:04;102502.22;;;6.28;60.60
76378;BME280;65200;49.500;8.654;2024-01-27T06:58:32;102494.97;;;6.66;58.92
76378;BME280;65200;49.500;8.654;2024-01-27T07:01:00;102506.19;;;6.82;59.11
76378;BME280;65200;49.500;8.654;2024-01-27T07:03:28;102503.44;;;6.48;60.03
76378;BME280;65200;49.500;8.654;2024-01-27T07:05:56;102510.16;;;6.53;59.05
76378;BME280;65200;49.500;8.654;2024-01-27T07:08:27;102507.16;;;6.22;60.08
76378;BME280;65200;49.500;8.654;2024-01-27T07:10:55;102508.63;;;6.85;57.99
76378;BME280;65200;49.500;8.654;2024-01-27T07:13:23;102513.75;;;6.29;59.82
76378;BME280;65200;49.500;8.654;2024-01-27T07:15:51;102516.06;;;6.69;59.02
76378;BME280;65200;49.500;8.654;2024-01-27T07:18:20;102512.88;;;6.88;58.67
76378;BME280;65200;49.500;8.654;2024-01-27T07:20:48;102519.28;;;6.26;59.97
76378;BME280;65200;49.500;8.654;2024-01-27T07:23:17;102521.31;;;6.58;59.50
76378;BME280;65200;49.500;8.654;2024-01-27T07:25:45;102520.63;;;6.67;59.30
76378;BME280;65200;49.500;8.654;2024-01-27T07:28:12;102528.97;;;6.63;59.10
76378;BME280;65200;49.500;8.654;2024-01-27T07:30:42;102519.38;;;6.60;59.18
76378;BME280;65200;49.500;8.654;2024-01-27T07:33:10;102513.44;;;7.04;58.07
76378;BME280;65200;49.500;8.654;2024-01-27T07:35:39;102513.16;;;7.31;57.82
76378;BME280;65200;49.500;8.654;2024-01-27T07:38:07;102511.97;;;7.00;57.92
76378;BME280;65200;49.500;8.654;2024-01-27T07:40:35;102514.97;;;6.72;58.25
76378;BME280;65200;49.500;8.654;2024-01-27T07:43:04;102512.97;;;7.10;58.45
76378;BME280;65200;49.500;8.654;2024-01-27T07:45:31;102510.66;;;7.06;57.31
76378;BME280;65200;49.500;8.654;2024-01-27T07:47:59;102521.13;;;6.96;57.22
76378;BME280;65200;49.500;8.654;2024-01-27T07:50:27;102513.72;;;6.88;58.11
76378;BME280;65200;49.500;8.654;2024-01-27T07:52:57;102505.16;;;6.72;58.10
76378;BME280;65200;49.500;8.654;2024-01-27T07:55:25;102504.41;;;6.47;59.57
76378;BME280;65200;49.500;8.654;2024-01-27T07:57:52;102507.91;;;6.94;58.20
76378;BME280;65200;49.500;8.654;2024-01-27T08:00:20;102516.34;;;6.41;58.36
76378;BME280;65200;49.500;8.654;2024-01-27T08:02:48;102518.28;;;6.39;59.64
76378;BME280;65200;49.500;8.654;2024-01-27T08:05:15;102518.78;;;6.57;59.77
76378;BME280;65200;49.500;8.654;2024-01-27T08:07:47;102514.56;;;6.65;59.24
76378;BME280;65200;49.500;8.654;2024-01-27T08:10:17;102530.34;;;6.92;59.68
76378;BME280;65200;49.500;8.654;2024-01-27T08:12:44;102523.53;;;6.88;58.82
76378;BME280;65200;49.500;8.654;2024-01-27T08:15:12;102517.56;;;7.08;58.38
76378;BME280;65200;49.500;8.654;2024-01-27T08:17:40;102518.84;;;7.26;57.71
76378;BME280;65200;49.500;8.654;2024-01-27T08:20:08;102526.84;;;7.26;58.16
76378;BME280;65200;49.500;8.654;2024-01-27T08:22:36;102524.22;;;7.48;58.22
76378;BME280;65200;49.500;8.654;2024-01-27T08:25:04;102527.88;;;7.47;57.38
76378;BME280;65200;49.500;8.654;2024-01-27T08:27:33;102520.72;;;7.48;57.97
76378;BME280;65200;49.500;8.654;2024-01-27T08:30:01;102516.09;;;7.50;57.86
76378;BME280;65200;49.500;8.654;2024-01-27T08:32:28;102523.28;;;7.60;57.39
76378;BME280;65200;49.500;8.654;2024-01-27T08:34:56;102525.97;;;7.71;57.55
76378;BME280;65200;49.500;8.654;2024-01-27T08:37:23;102519.13;;;7.45;56.82
76378;BME280;65200;49.500;8.654;2024-01-27T08:39:51;102528.72;;;7.48;58.37
76378;BME280;65200;49.500;8.654;2024-01-27T08:42:19;102535.44;;;7.64;56.97
76378;BME280;65200;49.500;8.654;2024-01-27T08:44:48;102538.19;;;7.63;57.23
76378;BME280;65200;49.500;8.654;2024-01-27T08:47:15;102540.41;;;7.58;57.43
76378;BME280;65200;49.500;8.654;2024-01-27T08:49:43;102531.53;;;7.57;57.90
76378;BME280;65200;49.500;8.654;2024-01-27T08:52:10;102528.97;;;7.45;58.80
76378;BME280;65200;49.500;8.654;2024-01-27T08:54:38;102529.50;;;7.26;59.82
76378;BME280;65200;49.500;8.654;2024-01-27T08:57:06;102530.06;;;7.53;60.26
76378;BME280;65200;49.500;8.654;2024-01-27T08:59:34;102529.63;;;7.92;58.02
76378;BME280;65200;49.500;8.654;2024-01-27T09:02:03;102545.44;;;8.06;58.26
76378;BME280;65200;49.500;8.654;2024-01-27T09:04:31;102546.66;;;8.24;57.17
76378;BME280;65200;49.500;8.654;2024-01-27T09:06:58;102549.34;;;8.36;58.28
76378;BME280;65200;49.500;8.654;2024-01-27T09:09:26;102545.56;;;8.38;58.07
76378;BME280;65200;49.500;8.654;2024-01-27T09:11:55;102542.50;;;8.43;58.51
76378;BME280;65200;49.500;8.654;2024-01-27T09:14:23;102547.63;;;8.46;58.38
76378;BME280;65200;49.500;8.654;2024-01-27T09:16:50;102559.25;;;8.56;59.11
76378;BME280;65200;49.500;8.654;2024-01-27T09:19:20;102562.59;;;8.91;58.58
76378;BME280;65200;49.500;8.654;2024-01-27T09:21:48;102571.09;;;8.96;56.91
76378;BME280;65200;49.500;8.654;2024-01-27T09:24:16;102562.63;;;8.80;57.90
76378;BME280;65200;49.500;8.654;2024-01-27T09:26:43;102567.22;;;8.89;56.75
76378;BME280;65200;49.500;8.654;2024-01-27T09:29:11;102574.66;;;7.86;61.32
76378;BME280;65200;49.500;8.654;2024-01-27T09:31:38;102572.03;;;8.19;60.97
76378;BME280;65200;49.500;8.654;2024-01-27T09:34:06;102573.22;;;8.59;59.23
76378;BME280;65200;49.500;8.654;2024-01-27T09:36:36;102570.59;;;9.02;58.99
76378;BME280;65200;49.500;8.654;2024-01-27T09:39:03;102575.47;;;8.97;59.72
76378;BME280;65200;49.500;8.654;2024-01-27T09:41:31;102577.16;;;8.55;59.08
76378;BME280;65200;49.500;8.654;2024-01-27T09:44:01;102577.63;;;9.03;58.95
76378;BME280;65200;49.500;8.654;2024-01-27T09:46:29;102576.59;;;8.83;58.69
76378;BME280;65200;49.500;8.654;2024-01-27T09:48:58;102579.81;;;9.61;58.94
76378;BME280;65200;49.500;8.654;2024-01-27T09:51:26;102576.63;;;9.67;57.08
76378;BME280;65200;49.500;8.654;2024-01-27T09:53:55;102575.25;;;9.93;57.58
76378;BME280;65200;49.500;8.654;2024-01-27T09:56:23;102579.31;;;9.67;56.72
76378;BME280;65200;49.500;8.654;2024-01-27T09:58:52;102575.69;;;9.77;56.49
76378;BME280;65200;49.500;8.654;2024-01-27T10:01:24;102577.91;;;9.31;56.93
76378;BME280;65200;49.500;8.654;2024-01-27T10:03:52;102572.19;;;9.77;55.76
76378;BME280;65200;49.500;8.654;2024-01-27T10:06:21;102566.53;;;9.59;55.50
76378;BME280;65200;49.500;8.654;2024-01-27T10:08:51;102568.91;;;9.73;56.93
76378;BME280;65200;49.500;8.654;2024-01-27T10:11:23;102579.91;;;9.39;57.07
76378;BME280;65200;49.500;8.654;2024-01-27T10:13:54;102564.91;;;8.95;57.43
76378;BME280;65200;49.500;8.654;2024-01-27T10:16:25;102558.13;;;9.85;56.50
76378;BME280;65200;49.500;8.654;2024-01-27T10:19:00;102561.84;;;9.52;56.76
76378;BME280;65200;49.500;8.654;2024-01-27T10:21:28;102556.34;;;9.95;55.93
76378;BME280;65200;49.500;8.654;2024-01-27T10:23:56;102552.56;;;10.18;54.59
76378;BME280;65200;49.500;8.654;2024-01-27T10:26:25;102552.38;;;9.89;55.36
76378;BME280;65200;49.500;8.654;2024-01-27T10:28:54;102553.81;;;9.93;55.50
76378;BME280;65200;49.500;8.654;2024-01-27T10:31:26;102551.56;;;10.58;54.55
76378;BME280;65200;49.500;8.654;2024-01-27T10:33:54;102549.59;;;10.60;53.80
76378;BME280;65200;49.500;8.654;2024-01-27T10:36:23;102546.53;;;10.05;54.09
76378;BME280;65200;49.500;8.654;2024-01-27T10:38:50;102542.19;;;9.83;56.05
76378;BME280;65200;49.500;8.654;2024-01-27T10:41:21;102539.13;;;10.48;53.98
76378;BME280;65200;49.500;8.654;2024-01-27T10:43:51;102520.38;;;10.67;52.97
76378;BME280;65200;49.500;8.654;2024-01-27T10:46:20;102522.97;;;10.78;52.15
76378;BME280;65200;49.500;8.654;2024-01-27T10:48:50;102532.84;;;10.87;52.30
76378;BME280;65200;49.500;8.654;2024-01-27T10:51:30;102530.63;;;10.43;52.65
76378;BME280;65200;49.500;8.654;2024-01-27T10:54:01;102520.94;;;10.61;52.86
76378;BME280;65200;49.500;8.654;2024-01-27T10:56:29;102521.31;;;10.37;52.94
76378;BME280;65200;49.500;8.654;2024-01-27T10:59:00;102513.09;;;10.97;52.03
76378;BME280;65200;49.500;8.654;2024-01-27T11:01:28;102513.34;;;10.75;52.42
76378;BME280;65200;49.500;8.654;2024-01-27T11:04:00;102502.75;;;11.41;51.95
76378;BME280;65200;49.500;8.654;2024-01-27T11:06:31;102497.25;;;11.42;51.47
76378;BME280;65200;49.500;8.654;2024-01-27T11:09:01;102502.03;;;11.39;51.64
76378;BME280;65200;49.500;8.654;2024-01-27T11:11:32;102497.38;;;11.41;51.25
76378;BME280;65200;49.500;8.654;2024-01-27T11:14:01;102510.66;;;10.94;51.99
76378;BME280;65200;49.500;8.654;2024-01-27T11:16:29;102510.41;;;11.07;51.50
76378;BME280;65200;49.500;8.654;2024-01-27T11:18:57;102520.28;;;10.87;51.24
76378;BME280;65200;49.500;8.654;2024-01-27T11:21:24;102506.88;;;11.16;52.14
76378;BME280;65200;49.500;8.654;2024-01-27T11:23:52;102504.34;;;11.15;52.89
76378;BME280;65200;49.500;8.654;2024-01-27T11:26:21;102502.19;;;10.70;53.86
76378;BME280;65200;49.500;8.654;2024-01-27T11:28:50;102502.50;;;10.96;53.27
76378;BME280;65200;49.500;8.654;2024-01-27T11:31:19;102494.88;;;11.20;53.29
76378;BME280;65200;49.500;8.654;2024-01-27T11:33:50;102495.16;;;11.07;51.43
76378;BME280;65200;49.500;8.654;2024-01-27T11:36:21;102490.06;;;11.24;51.33
76378;BME280;65200;49.500;8.654;2024-01-27T11:38:50;102485.81;;;11.21;51.05
76378;BME280;65200;49.500;8.654;2024-01-27T11:41:27;102487.41;;;11.24;49.89
76378;BME280;65200;49.500;8.654;2024-01-27T11:43:57;102488.03;;;11.54;48.65
76378;BME280;65200;49.500;8.654;2024-01-27T11:46:27;102488.06;;;11.45;51.51
76378;BME280;65200;49.500;8.654;2024-01-27T11:48:54;102488.88;;;11.45;50.39
76378;BME280;65200;49.500;8.654;2024-01-27T11:51:24;102489.59;;;11.47;51.93
76378;BME280;65200;49.500;8.654;2024-01-27T11:53:52;102486.66;;;11.41;51.39
76378;BME280;65200;49.500;8.654;2024-01-27T11:56:20;102483.44;;;11.93;49.11
76378;BME280;65200;49.500;8.654;2024-01-27T11:58:48;102484.09;;;11.49;50.71
76378;BME280;65200;49.500;8.654;2024-01-27T12:01:17;102485.25;;;11.46;50.83
76378;BME280;65200;49.500;8.654;2024-01-27T12:03:46;102475.81;;;11.88;49.70
76378;BME280;65200;49.500;8.654;2024-01-27T12:06:15;102467.84;;;11.96;47.88
76378;BME280;65200;49.500;8.654;2024-01-27T12:08:43;102461.31;;;11.99;47.48
76378;BME280;65200;49.500;8.654;2024-01-27T12:11:13;102466.28;;;12.48;47.65
76378;BME280;65200;49.500;8.654;2024-01-27T12:13:44;102459.72;;;12.78;47.04
76378;BME280;65200;49.500;8.654;2024-01-27T12:16:12;102450.03;;;12.85;45.59
76378;BME280;65200;49.500;8.654;2024-01-27T12:18:39;102449.03;;;12.68;46.55
76378;BME280;65200;49.500;8.654;2024-01-27T12:21:09;102454.66;;;12.75;46.15
76378;BME280;65200;49.500;8.654;2024-01-27T12:23:50;102464.69;;;12.55;47.35
76378;BME280;65200;49.500;8.654;2024-01-27T12:26:18;102468.59;;;12.43;49.24
76378;BME280;65200;49.500;8.654;2024-01-27T12:28:47;102473.13;;;12.15;49.38
76378;BME280;65200;49.500;8.654;2024-01-27T12:31:15;102467.25;;;12.92;47.04
76378;BME280;65200;49.500;8.654;2024-01-27T12:33:50;102472.06;;;12.88;47.34
76378;BME280;65200;49.500;8.654;2024-01-27T12:36:20;102476.97;;;12.58;46.29
76378;BME280;65200;49.500;8.654;2024-01-27T12:38:56;102478.41;;;12.79;45.10
76378;BME280;65200;49.500;8.654;2024-01-27T12:41:25;102478.94;;;13.18;43.61
76378;BME280;65200;49.500;8.654;2024-01-27T12:43:52;102482.56;;;13.26;40.58
76378;BME280;65200;49.500;8.654;2024-01-27T12:46:20;102478.25;;;13.33;41.39
76378;BME280;65200;49.500;8.654;2024-01-27T12:48:48;102480.25;;;13.31;42.29
76378;BME280;65200;49.500;8.654;2024-01-27T12:51:16;102468.56;;;13.48;43.52
76378;BME280;65200;49.500;8.654;2024-01-27T12:53:46;102462.19;;;13.49;42.70
76378;BME280;65200;49.500;8.654;2024-01-27T12:56:14;102463.97;;;13.41;44.23
76378;BME280;65200;49.500;8.654;2024-01-27T12:58:42;102463.72;;;13.52;44.04
76378;BME280;65200;49.500;8.654;2024-01-27T13:01:10;102465.28;;;13.54;44.35
76378;BME280;65200;49.500;8.654;2024-01-27T13:03:38;102471.06;;;13.42;45.58